Create Tblcommutelog Verified Points Advance Search
| # | Trip ID | Id Commuter | Trip Date | Trip Num | Current Lat | Current Lng | Delta Distance | Current Time | Activity | Activity Confidence | Current Speed | |
|---|---|---|---|---|---|---|---|---|---|---|---|---|
| 70581 | 251106_780216_6461772_0739 | 780216 | (not set) | (not set) | 38.8691365 | -77.054231 | 16.3267 | 2025-11-06 08:47:15 | still | 100 | 2.3603672874552 | |
| 70582 | 251106_780216_6461772_0739 | 780216 | (not set) | (not set) | 38.8691365 | -77.054231 | 16.3267 | 2025-11-06 08:47:15 | still | 100 | 2.3603672874552 | |
| 70583 | 251106_780216_6461772_0739 | 780216 | (not set) | (not set) | 38.869143 | -77.0542407 | 16.3267 | 2025-11-06 08:47:20 | still | 100 | 0.17434531100521 | |
| 70584 | 251106_780216_6461772_0739 | 780216 | (not set) | (not set) | 38.869143 | -77.0542407 | 16.3267 | 2025-11-06 08:47:20 | still | 100 | 0.17434531100521 | |
| 70585 | 251106_780216_6461772_0739 | 780216 | (not set) | (not set) | 38.8694715 | -77.0538684 | 16.357 | 2025-11-06 08:47:27 | still | 100 | 3.0085742129874 | |
| 70586 | 251106_780216_6461772_0739 | 780216 | (not set) | (not set) | 38.8694715 | -77.0538684 | 16.357 | 2025-11-06 08:47:27 | still | 100 | 3.0085742129874 | |
| 70587 | 251106_780216_6461772_0739 | 780216 | (not set) | (not set) | 38.8694886 | -77.0538291 | 16.357 | 2025-11-06 08:47:34 | still | 100 | 0.38445376272944 | |
| 70588 | 251106_780216_6461772_0739 | 780216 | (not set) | (not set) | 38.8694886 | -77.0538291 | 16.357 | 2025-11-06 08:47:34 | still | 100 | 0.38445376272944 | |
| 70589 | 251106_780216_6461772_0739 | 780216 | (not set) | (not set) | 38.8694908 | -77.0538135 | 16.357 | 2025-11-06 08:47:41 | still | 100 | 0.10281902956718 | |
| 70590 | 251106_780216_6461772_0739 | 780216 | (not set) | (not set) | 38.8694908 | -77.0538135 | 16.357 | 2025-11-06 08:47:41 | still | 100 | 0.10281902956718 | |
| 70591 | 251106_788776_16490874_0744 | 788776 | (not set) | (not set) | 38.682462241311 | -77.227893782516 | 29.7929 | 2025-11-06 08:49:56 | in_vehicle | 100 | 13.809042710131 | |
| 70592 | 251106_780216_6461772_0739 | 780216 | (not set) | (not set) | 38.8690515 | -77.0543154 | 16.3947 | 2025-11-06 08:49:25 | still | 100 | 4.8995502785055 | |
| 70593 | 251106_780216_6461772_0739 | 780216 | (not set) | (not set) | 38.8690515 | -77.0543154 | 16.3947 | 2025-11-06 08:49:25 | still | 100 | 4.8995502785055 | |
| 70594 | 251106_780216_6461772_0739 | 780216 | (not set) | (not set) | 38.8694206 | -77.0538722 | 16.4327 | 2025-11-06 08:49:38 | still | 100 | 0.25928277021288 | |
| 70595 | 251106_780216_6461772_0739 | 780216 | (not set) | (not set) | 38.8694206 | -77.0538722 | 16.4327 | 2025-11-06 08:49:38 | still | 100 | 0.25928277021288 | |
| 70596 | 251106_780216_6461772_0739 | 780216 | (not set) | (not set) | 38.8694698 | -77.0538572 | 16.4327 | 2025-11-06 08:49:32 | still | 100 | 3.0532781388862 | |
| 70597 | 251106_780216_6461772_0739 | 780216 | (not set) | (not set) | 38.8694698 | -77.0538572 | 16.4327 | 2025-11-06 08:49:32 | still | 100 | 3.0532781388862 | |
| 70598 | 251106_788421_6438355_0805 | 788421 | (not set) | (not set) | 39.077288398456 | -77.138099052231 | 12.5217 | 2025-11-06 08:49:58 | in_vehicle | 100 | 13.066957540211 | |
| 70599 | 251106_780216_6461772_0739 | 780216 | (not set) | (not set) | 38.8693838 | -77.0539615 | 16.4327 | 2025-11-06 08:49:45 | still | 100 | 0.55879907373466 | |
| 70600 | 251106_780216_6461772_0739 | 780216 | (not set) | (not set) | 38.8693838 | -77.0539615 | 16.4327 | 2025-11-06 08:49:45 | still | 100 | 0.55879907373466 |